sensor_id;sensor_type;location;lat;lon;timestamp;pressure;altitude;pressure_sealevel;temperature;humidity
57791;BME280;43621;51.798;21.588;2023-04-30T00:03:28;99699.35;;;10.53;50.00
57791;BME280;43621;51.798;21.588;2023-04-30T00:07:29;99700.89;;;10.55;50.00
57791;BME280;43621;51.798;21.588;2023-04-30T00:11:31;99698.79;;;10.61;50.03
57791;BME280;43621;51.798;21.588;2023-04-30T00:15:32;99697.92;;;10.63;49.97
57791;BME280;43621;51.798;21.588;2023-04-30T00:19:33;99694.46;;;10.61;49.94
57791;BME280;43621;51.798;21.588;2023-04-30T00:23:34;99687.52;;;10.56;49.99
57791;BME280;43621;51.798;21.588;2023-04-30T00:27:36;99690.85;;;10.45;49.87
57791;BME280;43621;51.798;21.588;2023-04-30T00:31:37;99696.77;;;10.33;49.96
57791;BME280;43621;51.798;21.588;2023-04-30T00:35:38;99701.21;;;10.20;50.10
57791;BME280;43621;51.798;21.588;2023-04-30T00:39:39;99700.70;;;10.09;50.36
57791;BME280;43621;51.798;21.588;2023-04-30T00:43:40;99701.48;;;10.03;50.66
57791;BME280;43621;51.798;21.588;2023-04-30T00:47:41;99699.56;;;9.95;50.71
57791;BME280;43621;51.798;21.588;2023-04-30T00:51:42;99703.35;;;9.88;50.92
57791;BME280;43621;51.798;21.588;2023-04-30T00:55:44;99700.77;;;9.81;51.01
57791;BME280;43621;51.798;21.588;2023-04-30T00:59:46;99698.48;;;9.68;51.08
57791;BME280;43621;51.798;21.588;2023-04-30T01:03:47;99697.04;;;9.61;51.26
57791;BME280;43621;51.798;21.588;2023-04-30T01:07:49;99690.80;;;9.54;51.39
57791;BME280;43621;51.798;21.588;2023-04-30T01:16:24;99683.32;;;9.39;51.63
57791;BME280;43621;51.798;21.588;2023-04-30T01:20:28;99680.58;;;9.31;51.74
57791;BME280;43621;51.798;21.588;2023-04-30T01:24:48;99679.91;;;9.17;51.80
57791;BME280;43621;51.798;21.588;2023-04-30T01:28:52;99673.56;;;9.07;52.09
57791;BME280;43621;51.798;21.588;2023-04-30T01:32:53;99677.21;;;8.99;52.19
57791;BME280;43621;51.798;21.588;2023-04-30T01:41:29;99678.29;;;9.01;52.74
57791;BME280;43621;51.798;21.588;2023-04-30T01:53:52;99684.64;;;9.15;53.22
57791;BME280;43621;51.798;21.588;2023-04-30T01:57:59;99686.52;;;9.17;53.10
57791;BME280;43621;51.798;21.588;2023-04-30T02:02:01;99696.73;;;9.24;53.25
57791;BME280;43621;51.798;21.588;2023-04-30T02:06:02;99697.09;;;9.29;53.29
57791;BME280;43621;51.798;21.588;2023-04-30T02:10:05;99700.08;;;9.37;53.40
57791;BME280;43621;51.798;21.588;2023-04-30T02:14:06;99697.30;;;9.41;53.49
57791;BME280;43621;51.798;21.588;2023-04-30T02:18:07;99697.23;;;9.43;53.47
57791;BME280;43621;51.798;21.588;2023-04-30T02:22:08;99699.64;;;9.49;53.50
57791;BME280;43621;51.798;21.588;2023-04-30T02:26:09;99702.36;;;9.54;53.51
57791;BME280;43621;51.798;21.588;2023-04-30T02:30:10;99702.19;;;9.60;53.62
57791;BME280;43621;51.798;21.588;2023-04-30T02:34:11;99700.35;;;9.66;53.65
57791;BME280;43621;51.798;21.588;2023-04-30T02:38:12;99701.14;;;9.73;53.74
57791;BME280;43621;51.798;21.588;2023-04-30T02:42:14;99705.88;;;9.83;53.79
57791;BME280;43621;51.798;21.588;2023-04-30T02:46:15;99710.09;;;9.93;53.75
57791;BME280;43621;51.798;21.588;2023-04-30T02:50:16;99714.52;;;10.01;53.69
57791;BME280;43621;51.798;21.588;2023-04-30T02:54:17;99718.19;;;10.07;53.62
57791;BME280;43621;51.798;21.588;2023-04-30T02:58:18;99717.36;;;10.06;53.46
57791;BME280;43621;51.798;21.588;2023-04-30T03:02:19;99717.79;;;10.02;53.40
57791;BME280;43621;51.798;21.588;2023-04-30T03:06:23;99722.74;;;9.93;53.44
57791;BME280;43621;51.798;21.588;2023-04-30T03:10:24;99724.56;;;9.83;53.52
57791;BME280;43621;51.798;21.588;2023-04-30T03:14:25;99725.41;;;9.74;53.62
57791;BME280;43621;51.798;21.588;2023-04-30T03:18:27;99730.38;;;9.70;53.78
57791;BME280;43621;51.798;21.588;2023-04-30T03:22:29;99735.27;;;9.71;53.91
57791;BME280;43621;51.798;21.588;2023-04-30T03:26:30;99736.11;;;9.77;54.06
57791;BME280;43621;51.798;21.588;2023-04-30T03:30:31;99735.85;;;9.84;54.00
57791;BME280;43621;51.798;21.588;2023-04-30T03:34:32;99732.27;;;9.92;54.00
57791;BME280;43621;51.798;21.588;2023-04-30T03:38:33;99731.67;;;10.01;54.13
57791;BME280;43621;51.798;21.588;2023-04-30T03:42:34;99740.89;;;10.12;54.30
57791;BME280;43621;51.798;21.588;2023-04-30T03:46:35;99749.87;;;10.27;54.25
57791;BME280;43621;51.798;21.588;2023-04-30T03:50:36;99754.58;;;10.39;54.16
57791;BME280;43621;51.798;21.588;2023-04-30T03:54:37;99757.77;;;10.50;54.29
57791;BME280;43621;51.798;21.588;2023-04-30T03:58:38;99762.75;;;10.62;54.48
57791;BME280;43621;51.798;21.588;2023-04-30T04:02:40;99768.09;;;10.74;54.57
57791;BME280;43621;51.798;21.588;2023-04-30T04:06:41;99772.57;;;10.85;54.58
57791;BME280;43621;51.798;21.588;2023-04-30T04:10:42;99779.17;;;10.93;54.54
57791;BME280;43621;51.798;21.588;2023-04-30T04:14:43;99782.05;;;10.96;54.46
57791;BME280;43621;51.798;21.588;2023-04-30T04:18:45;99786.73;;;10.99;54.67
57791;BME280;43621;51.798;21.588;2023-04-30T04:22:46;99793.00;;;11.08;54.77
57791;BME280;43621;51.798;21.588;2023-04-30T04:26:47;99794.77;;;11.15;54.66
57791;BME280;43621;51.798;21.588;2023-04-30T04:30:48;99798.04;;;11.21;54.80
57791;BME280;43621;51.798;21.588;2023-04-30T04:34:49;99802.16;;;11.28;54.91
57791;BME280;43621;51.798;21.588;2023-04-30T04:38:50;99804.48;;;11.34;55.01
57791;BME280;43621;51.798;21.588;2023-04-30T04:42:52;99807.30;;;11.41;55.05
57791;BME280;43621;51.798;21.588;2023-04-30T04:46:53;99810.90;;;11.54;55.30
57791;BME280;43621;51.798;21.588;2023-04-30T04:50:56;99817.98;;;11.62;55.42
57791;BME280;43621;51.798;21.588;2023-04-30T04:54:57;99817.85;;;11.73;55.58
57791;BME280;43621;51.798;21.588;2023-04-30T04:58:58;99822.90;;;11.86;55.69
57791;BME280;43621;51.798;21.588;2023-04-30T05:02:59;99825.48;;;11.97;55.76
57791;BME280;43621;51.798;21.588;2023-04-30T05:07:00;99831.65;;;12.03;55.85
57791;BME280;43621;51.798;21.588;2023-04-30T05:11:02;99834.09;;;12.08;56.15
57791;BME280;43621;51.798;21.588;2023-04-30T05:15:03;99837.34;;;12.20;56.30
57791;BME280;43621;51.798;21.588;2023-04-30T05:19:04;99844.33;;;12.38;56.28
57791;BME280;43621;51.798;21.588;2023-04-30T05:23:05;99850.41;;;12.65;56.46
57791;BME280;43621;51.798;21.588;2023-04-30T05:27:07;99851.77;;;12.94;56.41
57791;BME280;43621;51.798;21.588;2023-04-30T05:31:08;99855.38;;;13.12;56.13
57791;BME280;43621;51.798;21.588;2023-04-30T05:35:09;99863.41;;;13.19;56.11
57791;BME280;43621;51.798;21.588;2023-04-30T05:39:10;99867.67;;;13.13;56.19
57791;BME280;43621;51.798;21.588;2023-04-30T05:43:12;99874.92;;;13.01;56.15
57791;BME280;43621;51.798;21.588;2023-04-30T05:47:13;99882.59;;;12.84;56.27
57791;BME280;43621;51.798;21.588;2023-04-30T05:51:14;99890.33;;;12.68;56.71
57791;BME280;43621;51.798;21.588;2023-04-30T05:55:15;99895.31;;;12.50;57.02
57791;BME280;43621;51.798;21.588;2023-04-30T05:59:16;99911.34;;;12.33;57.68
57791;BME280;43621;51.798;21.588;2023-04-30T06:03:18;99917.13;;;12.16;58.47
57791;BME280;43621;51.798;21.588;2023-04-30T06:07:20;99920.50;;;11.96;59.09
57791;BME280;43621;51.798;21.588;2023-04-30T06:11:21;99926.71;;;11.84;59.42
57791;BME280;43621;51.798;21.588;2023-04-30T06:15:22;99934.48;;;11.74;59.89
57791;BME280;43621;51.798;21.588;2023-04-30T06:19:23;99938.11;;;11.66;60.03
57791;BME280;43621;51.798;21.588;2023-04-30T06:23:24;99946.20;;;11.67;60.15
57791;BME280;43621;51.798;21.588;2023-04-30T06:27:25;99947.08;;;11.76;60.37
57791;BME280;43621;51.798;21.588;2023-04-30T06:31:27;99949.80;;;11.90;60.46
57791;BME280;43621;51.798;21.588;2023-04-30T06:35:28;99953.77;;;12.05;60.28
57791;BME280;43621;51.798;21.588;2023-04-30T06:39:30;99959.11;;;12.18;60.35
57791;BME280;43621;51.798;21.588;2023-04-30T06:43:31;99967.13;;;12.29;60.11
57791;BME280;43621;51.798;21.588;2023-04-30T06:47:32;99971.10;;;12.40;59.97
57791;BME280;43621;51.798;21.588;2023-04-30T06:51:34;99979.39;;;12.55;59.85
57791;BME280;43621;51.798;21.588;2023-04-30T06:55:35;99986.27;;;12.67;59.67
57791;BME280;43621;51.798;21.588;2023-04-30T06:59:36;99988.90;;;12.77;59.51
57791;BME280;43621;51.798;21.588;2023-04-30T07:03:39;99991.05;;;12.84;59.22
57791;BME280;43621;51.798;21.588;2023-04-30T07:07:40;99992.83;;;12.90;58.99
57791;BME280;43621;51.798;21.588;2023-04-30T07:11:41;99994.02;;;13.12;58.71
57791;BME280;43621;51.798;21.588;2023-04-30T07:15:42;99991.71;;;13.33;58.30
57791;BME280;43621;51.798;21.588;2023-04-30T07:19:44;99992.42;;;13.53;57.99
57791;BME280;43621;51.798;21.588;2023-04-30T07:23:45;99994.33;;;13.83;57.52
57791;BME280;43621;51.798;21.588;2023-04-30T07:27:46;99996.66;;;14.18;57.09
57791;BME280;43621;51.798;21.588;2023-04-30T07:31:47;99995.91;;;14.75;56.39
57791;BME280;43621;51.798;21.588;2023-04-30T07:35:48;99998.43;;;15.57;55.21
57791;BME280;43621;51.798;21.588;2023-04-30T07:39:49;99998.69;;;17.58;53.83
57791;BME280;43621;51.798;21.588;2023-04-30T07:43:50;99995.39;;;20.64;51.41
57791;BME280;43621;51.798;21.588;2023-04-30T07:47:51;99995.23;;;23.46;48.07
57791;BME280;43621;51.798;21.588;2023-04-30T07:51:52;100003.73;;;26.41;43.11
57791;BME280;43621;51.798;21.588;2023-04-30T07:55:53;100005.19;;;28.98;39.27
57791;BME280;43621;51.798;21.588;2023-04-30T07:59:54;100008.54;;;31.97;35.27
57791;BME280;43621;51.798;21.588;2023-04-30T08:03:56;100005.90;;;33.00;31.80
57791;BME280;43621;51.798;21.588;2023-04-30T08:07:57;100018.97;;;33.78;28.30
57791;BME280;43621;51.798;21.588;2023-04-30T08:11:58;100026.48;;;32.52;26.12
57791;BME280;43621;51.798;21.588;2023-04-30T08:15:59;100029.52;;;31.73;25.97
57791;BME280;43621;51.798;21.588;2023-04-30T08:20:01;100032.21;;;32.21;26.43
57791;BME280;43621;51.798;21.588;2023-04-30T08:24:03;100036.92;;;33.02;25.64
57791;BME280;43621;51.798;21.588;2023-04-30T08:28:05;100039.13;;;33.72;25.00
57791;BME280;43621;51.798;21.588;2023-04-30T08:32:06;100039.27;;;35.67;23.54
57791;BME280;43621;51.798;21.588;2023-04-30T08:36:08;100038.23;;;39.26;20.76
57791;BME280;43621;51.798;21.588;2023-04-30T08:40:10;100044.77;;;41.52;17.35
57791;BME280;43621;51.798;21.588;2023-04-30T08:44:12;100045.19;;;43.31;16.59
57791;BME280;43621;51.798;21.588;2023-04-30T08:48:13;100051.53;;;44.51;14.76
57791;BME280;43621;51.798;21.588;2023-04-30T08:52:17;100050.71;;;46.34;13.88
57791;BME280;43621;51.798;21.588;2023-04-30T08:56:18;100050.77;;;46.39;13.01
57791;BME280;43621;51.798;21.588;2023-04-30T09:00:21;100050.90;;;47.28;12.52
57791;BME280;43621;51.798;21.588;2023-04-30T09:04:22;100045.48;;;47.68;11.24
57791;BME280;43621;51.798;21.588;2023-04-30T09:08:46;100051.69;;;44.36;11.19
57791;BME280;43621;51.798;21.588;2023-04-30T09:13:07;100058.87;;;43.16;12.47
57791;BME280;43621;51.798;21.588;2023-04-30T09:17:08;100056.78;;;43.91;12.34
57791;BME280;43621;51.798;21.588;2023-04-30T09:21:09;100055.74;;;43.35;12.33
57791;BME280;43621;51.798;21.588;2023-04-30T09:25:11;100057.45;;;44.35;11.65
57791;BME280;43621;51.798;21.588;2023-04-30T09:29:12;100060.80;;;40.78;12.07
57791;BME280;43621;51.798;21.588;2023-04-30T09:33:13;100059.09;;;40.84;12.92
57791;BME280;43621;51.798;21.588;2023-04-30T09:37:14;100063.21;;;42.89;12.66
57791;BME280;43621;51.798;21.588;2023-04-30T09:41:26;100062.74;;;43.69;11.55
57791;BME280;43621;51.798;21.588;2023-04-30T09:45:47;100067.11;;;42.44;11.72
57791;BME280;43621;51.798;21.588;2023-04-30T09:49:51;100070.08;;;44.56;11.41
57791;BME280;43621;51.798;21.588;2023-04-30T09:53:53;100070.55;;;43.10;10.92
57791;BME280;43621;51.798;21.588;2023-04-30T09:57:54;100074.85;;;38.91;11.69
57791;BME280;43621;51.798;21.588;2023-04-30T10:02:00;100080.64;;;35.19;12.98
57791;BME280;43621;51.798;21.588;2023-04-30T10:06:02;100075.41;;;33.53;14.66
57791;BME280;43621;51.798;21.588;2023-04-30T10:10:08;100070.90;;;37.27;14.41
57791;BME280;43621;51.798;21.588;2023-04-30T10:14:12;100069.84;;;41.73;12.72
57791;BME280;43621;51.798;21.588;2023-04-30T10:18:34;100066.48;;;44.36;10.35
57791;BME280;43621;51.798;21.588;2023-04-30T10:22:37;100073.64;;;45.62;9.28
57791;BME280;43621;51.798;21.588;2023-04-30T10:26:39;100069.41;;;47.13;9.31
57791;BME280;43621;51.798;21.588;2023-04-30T10:30:41;100068.03;;;48.67;7.98
57791;BME280;43621;51.798;21.588;2023-04-30T10:39:18;100066.89;;;50.31;7.27
57791;BME280;43621;51.798;21.588;2023-04-30T10:43:23;100070.46;;;50.58;6.95
57791;BME280;43621;51.798;21.588;2023-04-30T10:47:28;100071.25;;;50.75;6.76
57791;BME280;43621;51.798;21.588;2023-04-30T10:51:50;100071.40;;;50.49;5.99
57791;BME280;43621;51.798;21.588;2023-04-30T11:04:09;100077.84;;;42.91;7.45
57791;BME280;43621;51.798;21.588;2023-04-30T11:08:10;100072.48;;;39.17;8.40
57791;BME280;43621;51.798;21.588;2023-04-30T11:12:19;100080.58;;;36.06;9.65
57791;BME280;43621;51.798;21.588;2023-04-30T11:16:28;100081.14;;;33.16;10.95
57791;BME280;43621;51.798;21.588;2023-04-30T11:20:30;100085.56;;;30.80;12.15
57791;BME280;43621;51.798;21.588;2023-04-30T11:24:51;100088.21;;;28.87;13.05
57791;BME280;43621;51.798;21.588;2023-04-30T11:28:54;100086.35;;;27.30;13.93
57791;BME280;43621;51.798;21.588;2023-04-30T11:32:58;100090.92;;;26.14;14.92
57791;BME280;43621;51.798;21.588;2023-04-30T11:37:00;100089.30;;;25.08;15.28
57791;BME280;43621;51.798;21.588;2023-04-30T11:41:03;100085.16;;;24.34;15.48
57791;BME280;43621;51.798;21.588;2023-04-30T11:45:15;100091.38;;;23.81;15.84
57791;BME280;43621;51.798;21.588;2023-04-30T11:49:19;100095.41;;;23.26;15.93
57791;BME280;43621;51.798;21.588;2023-04-30T11:53:26;100099.20;;;22.73;16.20
57791;BME280;43621;51.798;21.588;2023-04-30T11:57:34;100101.68;;;22.28;16.49
57791;BME280;43621;51.798;21.588;2023-04-30T12:01:35;100097.47;;;21.88;16.89
57791;BME280;43621;51.798;21.588;2023-04-30T12:05:39;100094.77;;;21.72;17.16
57791;BME280;43621;51.798;21.588;2023-04-30T12:09:51;100101.93;;;21.63;17.25
57791;BME280;43621;51.798;21.588;2023-04-30T12:13:54;100108.40;;;21.48;17.58
57791;BME280;43621;51.798;21.588;2023-04-30T12:17:58;100102.98;;;21.22;17.84
57791;BME280;43621;51.798;21.588;2023-04-30T12:21:59;100100.02;;;21.10;18.09
57791;BME280;43621;51.798;21.588;2023-04-30T12:26:00;100100.59;;;21.03;18.31
57791;BME280;43621;51.798;21.588;2023-04-30T12:30:04;100096.05;;;20.94;19.00
57791;BME280;43621;51.798;21.588;2023-04-30T12:34:10;100096.17;;;21.01;19.18
57791;BME280;43621;51.798;21.588;2023-04-30T12:38:15;100087.16;;;21.13;19.49
57791;BME280;43621;51.798;21.588;2023-04-30T12:42:19;100087.31;;;21.14;19.54
57791;BME280;43621;51.798;21.588;2023-04-30T12:46:25;100087.04;;;21.22;19.67
57791;BME280;43621;51.798;21.588;2023-04-30T12:50:27;100083.15;;;21.28;19.80
57791;BME280;43621;51.798;21.588;2023-04-30T12:54:30;100083.71;;;21.18;19.78
57791;BME280;43621;51.798;21.588;2023-04-30T12:58:32;100075.48;;;21.05;19.89
57791;BME280;43621;51.798;21.588;2023-04-30T13:02:33;100080.37;;;20.92;20.11
57791;BME280;43621;51.798;21.588;2023-04-30T13:06:34;100081.39;;;20.87;20.31
57791;BME280;43621;51.798;21.588;2023-04-30T13:10:36;100079.52;;;20.72;20.56
57791;BME280;43621;51.798;21.588;2023-04-30T13:14:37;100081.05;;;20.61;20.70
57791;BME280;43621;51.798;21.588;2023-04-30T13:18:38;100081.73;;;20.39;20.83
57791;BME280;43621;51.798;21.588;2023-04-30T13:22:39;100089.59;;;20.16;20.99
57791;BME280;43621;51.798;21.588;2023-04-30T13:26:40;100082.53;;;20.10;21.06
57791;BME280;43621;51.798;21.588;2023-04-30T13:30:42;100085.62;;;20.13;21.11
57791;BME280;43621;51.798;21.588;2023-04-30T13:34:43;100081.70;;;20.05;21.10
57791;BME280;43621;51.798;21.588;2023-04-30T13:38:44;100082.21;;;19.98;21.25
57791;BME280;43621;51.798;21.588;2023-04-30T13:42:47;100081.46;;;19.86;21.48
57791;BME280;43621;51.798;21.588;2023-04-30T13:46:48;100078.24;;;19.79;21.52
57791;BME280;43621;51.798;21.588;2023-04-30T13:50:53;100087.96;;;19.75;21.65
57791;BME280;43621;51.798;21.588;2023-04-30T13:54:54;100087.70;;;19.67;21.71
57791;BME280;43621;51.798;21.588;2023-04-30T13:58:57;100087.38;;;19.66;21.95
57791;BME280;43621;51.798;21.588;2023-04-30T14:02:58;100091.38;;;19.50;21.94
57791;BME280;43621;51.798;21.588;2023-04-30T14:07:00;100091.10;;;19.24;22.16
57791;BME280;43621;51.798;21.588;2023-04-30T14:11:02;100090.72;;;19.06;22.43
57791;BME280;43621;51.798;21.588;2023-04-30T14:15:04;100094.94;;;19.02;22.52
57791;BME280;43621;51.798;21.588;2023-04-30T14:19:06;100092.98;;;18.97;22.62
57791;BME280;43621;51.798;21.588;2023-04-30T14:23:07;100096.45;;;18.83;22.59
57791;BME280;43621;51.798;21.588;2023-04-30T14:27:08;100092.77;;;18.69;22.61
57791;BME280;43621;51.798;21.588;2023-04-30T14:31:09;100093.17;;;18.54;22.64
57791;BME280;43621;51.798;21.588;2023-04-30T14:35:10;100092.89;;;18.50;22.87
57791;BME280;43621;51.798;21.588;2023-04-30T14:39:12;100091.98;;;18.46;22.93
57791;BME280;43621;51.798;21.588;2023-04-30T14:43:13;100094.44;;;18.25;23.12
57791;BME280;43621;51.798;21.588;2023-04-30T14:47:14;100099.39;;;18.13;23.44
57791;BME280;43621;51.798;21.588;2023-04-30T14:51:15;100103.32;;;18.11;23.65
57791;BME280;43621;51.798;21.588;2023-04-30T14:55:17;100103.58;;;18.09;23.84
57791;BME280;43621;51.798;21.588;2023-04-30T14:59:18;100107.73;;;18.02;23.88
57791;BME280;43621;51.798;21.588;2023-04-30T15:03:19;100110.04;;;17.85;23.99
57791;BME280;43621;51.798;21.588;2023-04-30T15:07:21;100109.14;;;17.72;24.03
57791;BME280;43621;51.798;21.588;2023-04-30T15:11:22;100106.48;;;17.69;24.25
57791;BME280;43621;51.798;21.588;2023-04-30T15:15:24;100104.59;;;17.66;24.30
57791;BME280;43621;51.798;21.588;2023-04-30T15:19:29;100111.29;;;17.61;24.41
57791;BME280;43621;51.798;21.588;2023-04-30T15:23:30;100111.05;;;17.51;24.34
57791;BME280;43621;51.798;21.588;2023-04-30T15:27:31;100110.44;;;17.34;24.40
57791;BME280;43621;51.798;21.588;2023-04-30T15:31:33;100109.47;;;17.21;24.38
57791;BME280;43621;51.798;21.588;2023-04-30T15:35:35;100110.55;;;17.12;24.61
57791;BME280;43621;51.798;21.588;2023-04-30T15:39:36;100113.70;;;17.04;24.62
57791;BME280;43621;51.798;21.588;2023-04-30T15:43:38;100117.72;;;16.93;24.70
57791;BME280;43621;51.798;21.588;2023-04-30T15:47:39;100122.64;;;16.81;24.94
57791;BME280;43621;51.798;21.588;2023-04-30T15:51:41;100126.88;;;16.64;24.95
57791;BME280;43621;51.798;21.588;2023-04-30T15:55:42;100127.77;;;16.48;25.27
57791;BME280;43621;51.798;21.588;2023-04-30T15:59:43;100132.48;;;16.40;25.50
57791;BME280;43621;51.798;21.588;2023-04-30T16:03:45;100133.25;;;16.31;25.26
57791;BME280;43621;51.798;21.588;2023-04-30T16:07:46;100138.35;;;16.20;25.37
57791;BME280;43621;51.798;21.588;2023-04-30T16:11:47;100140.91;;;16.10;25.57
57791;BME280;43621;51.798;21.588;2023-04-30T16:15:50;100143.41;;;15.97;25.61
57791;BME280;43621;51.798;21.588;2023-04-30T16:19:51;100146.79;;;15.85;25.76
57791;BME280;43621;51.798;21.588;2023-04-30T16:23:52;100146.66;;;15.71;26.10
57791;BME280;43621;51.798;21.588;2023-04-30T16:27:54;100150.26;;;15.59;26.34
57791;BME280;43621;51.798;21.588;2023-04-30T16:31:56;100157.67;;;15.51;26.34
57791;BME280;43621;51.798;21.588;2023-04-30T16:35:57;100157.15;;;15.41;26.48
57791;BME280;43621;51.798;21.588;2023-04-30T16:39:59;100156.04;;;15.32;26.72
57791;BME280;43621;51.798;21.588;2023-04-30T16:44:01;100155.75;;;15.25;26.77
57791;BME280;43621;51.798;21.588;2023-04-30T16:48:02;100156.30;;;15.20;26.90
57791;BME280;43621;51.798;21.588;2023-04-30T16:52:04;100157.89;;;15.10;26.61
57791;BME280;43621;51.798;21.588;2023-04-30T16:56:07;100162.45;;;15.00;26.45
57791;BME280;43621;51.798;21.588;2023-04-30T17:00:09;100165.24;;;14.89;26.23
57791;BME280;43621;51.798;21.588;2023-04-30T17:04:11;100163.38;;;14.79;26.26
57791;BME280;43621;51.798;21.588;2023-04-30T17:08:13;100160.33;;;14.64;26.26
57791;BME280;43621;51.798;21.588;2023-04-30T17:12:14;100169.46;;;14.53;26.36
57791;BME280;43621;51.798;21.588;2023-04-30T17:16:15;100173.02;;;14.44;26.38
57791;BME280;43621;51.798;21.588;2023-04-30T17:20:17;100180.16;;;14.32;26.43
57791;BME280;43621;51.798;21.588;2023-04-30T17:24:18;100186.32;;;14.22;26.55
57791;BME280;43621;51.798;21.588;2023-04-30T17:28:19;100191.48;;;14.13;26.60
57791;BME280;43621;51.798;21.588;2023-04-30T17:32:20;100199.45;;;14.02;26.72
57791;BME280;43621;51.798;21.588;2023-04-30T17:36:21;100202.45;;;13.87;27.01
57791;BME280;43621;51.798;21.588;2023-04-30T17:40:23;100204.50;;;13.73;27.22
57791;BME280;43621;51.798;21.588;2023-04-30T17:44:24;100207.50;;;13.59;27.50
57791;BME280;43621;51.798;21.588;2023-04-30T17:48:25;100211.32;;;13.46;27.76
57791;BME280;43621;51.798;21.588;2023-04-30T17:52:27;100214.41;;;13.34;28.04
57791;BME280;43621;51.798;21.588;2023-04-30T17:56:28;100215.29;;;13.25;28.25
57791;BME280;43621;51.798;21.588;2023-04-30T18:00:31;100217.52;;;13.15;28.40
57791;BME280;43621;51.798;21.588;2023-04-30T18:04:34;100219.41;;;13.04;28.75
57791;BME280;43621;51.798;21.588;2023-04-30T18:08:35;100222.82;;;12.89;28.88
57791;BME280;43621;51.798;21.588;2023-04-30T18:12:36;100228.41;;;12.71;29.23
57791;BME280;43621;51.798;21.588;2023-04-30T18:16:38;100237.30;;;12.56;29.59
57791;BME280;43621;51.798;21.588;2023-04-30T18:20:39;100240.03;;;12.39;29.90
57791;BME280;43621;51.798;21.588;2023-04-30T18:24:40;100247.75;;;12.27;30.33
57791;BME280;43621;51.798;21.588;2023-04-30T18:28:42;100252.69;;;12.13;30.64
57791;BME280;43621;51.798;21.588;2023-04-30T18:32:43;100254.06;;;11.99;30.86
57791;BME280;43621;51.798;21.588;2023-04-30T18:36:44;100256.28;;;11.84;31.19
57791;BME280;43621;51.798;21.588;2023-04-30T18:40:45;100256.46;;;11.72;31.47
57791;BME280;43621;51.798;21.588;2023-04-30T18:44:46;100262.41;;;11.59;31.72
57791;BME280;43621;51.798;21.588;2023-04-30T18:48:48;100264.94;;;11.45;31.96
57791;BME280;43621;51.798;21.588;2023-04-30T18:52:49;100267.20;;;11.33;32.35
57791;BME280;43621;51.798;21.588;2023-04-30T18:56:50;100273.96;;;11.24;32.73
57791;BME280;43621;51.798;21.588;2023-04-30T19:00:56;100275.52;;;11.14;32.87
57791;BME280;43621;51.798;21.588;2023-04-30T19:04:57;100278.48;;;11.03;33.18
57791;BME280;43621;51.798;21.588;2023-04-30T19:08:58;100283.44;;;10.92;33.44
57791;BME280;43621;51.798;21.588;2023-04-30T19:13:01;100289.27;;;10.84;33.68
57791;BME280;43621;51.798;21.588;2023-04-30T19:17:02;100298.66;;;10.74;33.97
57791;BME280;43621;51.798;21.588;2023-04-30T19:21:05;100303.52;;;10.67;34.29
57791;BME280;43621;51.798;21.588;2023-04-30T19:25:07;100308.16;;;10.59;34.49
57791;BME280;43621;51.798;21.588;2023-04-30T19:29:08;100312.34;;;10.51;34.55
57791;BME280;43621;51.798;21.588;2023-04-30T19:33:09;100310.37;;;10.39;34.83
57791;BME280;43621;51.798;21.588;2023-04-30T19:37:12;100311.06;;;10.31;35.04
57791;BME280;43621;51.798;21.588;2023-04-30T19:41:13;100312.95;;;10.21;35.19
57791;BME280;43621;51.798;21.588;2023-04-30T19:45:14;100310.60;;;10.12;35.33
57791;BME280;43621;51.798;21.588;2023-04-30T19:49:16;100314.80;;;10.04;35.50
57791;BME280;43621;51.798;21.588;2023-04-30T19:53:18;100317.38;;;9.98;35.81
57791;BME280;43621;51.798;21.588;2023-04-30T19:57:21;100321.33;;;9.87;35.82
57791;BME280;43621;51.798;21.588;2023-04-30T20:01:22;100322.56;;;9.75;36.11
57791;BME280;43621;51.798;21.588;2023-04-30T20:05:23;100322.61;;;9.61;36.27
57791;BME280;43621;51.798;21.588;2023-04-30T20:09:24;100325.48;;;9.53;36.49
57791;BME280;43621;51.798;21.588;2023-04-30T20:13:26;100328.15;;;9.45;36.69
57791;BME280;43621;51.798;21.588;2023-04-30T20:17:27;100330.02;;;9.40;36.88
57791;BME280;43621;51.798;21.588;2023-04-30T20:21:28;100333.39;;;9.30;37.08
57791;BME280;43621;51.798;21.588;2023-04-30T20:25:30;100339.55;;;9.16;37.26
57791;BME280;43621;51.798;21.588;2023-04-30T20:29:31;100337.90;;;9.09;37.39
57791;BME280;43621;51.798;21.588;2023-04-30T20:33:32;100344.89;;;9.04;37.63
57791;BME280;43621;51.798;21.588;2023-04-30T20:37:34;100348.77;;;9.01;37.86
57791;BME280;43621;51.798;21.588;2023-04-30T20:41:38;100360.35;;;9.00;38.07
57791;BME280;43621;51.798;21.588;2023-04-30T20:45:42;100357.31;;;8.96;38.13
57791;BME280;43621;51.798;21.588;2023-04-30T20:49:43;100357.31;;;8.94;38.36
57791;BME280;43621;51.798;21.588;2023-04-30T20:53:45;100354.61;;;8.93;38.66
57791;BME280;43621;51.798;21.588;2023-04-30T20:57:46;100356.96;;;8.90;38.71
57791;BME280;43621;51.798;21.588;2023-04-30T21:01:47;100357.88;;;8.83;38.78
57791;BME280;43621;51.798;21.588;2023-04-30T21:05:48;100364.34;;;8.74;38.86
57791;BME280;43621;51.798;21.588;2023-04-30T21:09:49;100367.15;;;8.64;38.90
57791;BME280;43621;51.798;21.588;2023-04-30T21:13:51;100366.20;;;8.52;39.03
57791;BME280;43621;51.798;21.588;2023-04-30T21:17:52;100367.52;;;8.37;39.25
57791;BME280;43621;51.798;21.588;2023-04-30T21:21:53;100371.17;;;8.25;39.37
57791;BME280;43621;51.798;21.588;2023-04-30T21:25:56;100372.02;;;8.16;39.63
57791;BME280;43621;51.798;21.588;2023-04-30T21:29:57;100376.69;;;8.12;39.99